sensor_id;sensor_type;location;lat;lon;timestamp;pressure;altitude;pressure_sealevel;temperature;humidity
46464;BME280;32161;48.148;-1.554;2023-04-23T00:00:41;99978.78;;;12.59;97.84
46464;BME280;32161;48.148;-1.554;2023-04-23T00:03:09;99979.66;;;12.65;98.60
46464;BME280;32161;48.148;-1.554;2023-04-23T00:05:38;99972.31;;;12.70;98.96
46464;BME280;32161;48.148;-1.554;2023-04-23T00:08:07;99966.53;;;12.62;99.33
46464;BME280;32161;48.148;-1.554;2023-04-23T00:10:38;99968.75;;;12.65;99.68
46464;BME280;32161;48.148;-1.554;2023-04-23T00:13:06;99967.66;;;12.71;99.43
46464;BME280;32161;48.148;-1.554;2023-04-23T00:15:36;99969.03;;;12.68;100.00
46464;BME280;32161;48.148;-1.554;2023-04-23T00:18:04;99972.63;;;12.79;99.87
46464;BME280;32161;48.148;-1.554;2023-04-23T00:20:32;99964.16;;;12.76;100.00
46464;BME280;32161;48.148;-1.554;2023-04-23T00:23:00;99962.00;;;12.83;100.00
46464;BME280;32161;48.148;-1.554;2023-04-23T00:25:28;99975.91;;;12.81;100.00
46464;BME280;32161;48.148;-1.554;2023-04-23T00:27:57;99963.94;;;12.87;100.00
46464;BME280;32161;48.148;-1.554;2023-04-23T00:30:24;99962.06;;;12.88;100.00
46464;BME280;32161;48.148;-1.554;2023-04-23T00:32:52;99950.88;;;12.89;100.00
46464;BME280;32161;48.148;-1.554;2023-04-23T00:35:20;99949.78;;;12.90;100.00
46464;BME280;32161;48.148;-1.554;2023-04-23T00:37:48;99958.84;;;13.01;100.00
46464;BME280;32161;48.148;-1.554;2023-04-23T00:40:16;99945.47;;;13.00;100.00
46464;BME280;32161;48.148;-1.554;2023-04-23T00:42:44;99932.94;;;13.04;100.00
46464;BME280;32161;48.148;-1.554;2023-04-23T00:45:13;99914.94;;;13.08;100.00
46464;BME280;32161;48.148;-1.554;2023-04-23T00:47:42;99913.31;;;13.12;99.95
46464;BME280;32161;48.148;-1.554;2023-04-23T00:50:11;99908.13;;;13.10;100.00
46464;BME280;32161;48.148;-1.554;2023-04-23T00:52:39;99906.75;;;13.08;100.00
46464;BME280;32161;48.148;-1.554;2023-04-23T00:55:07;99896.47;;;13.25;100.00
46464;BME280;32161;48.148;-1.554;2023-04-23T00:57:36;99899.75;;;13.37;98.71
46464;BME280;32161;48.148;-1.554;2023-04-23T01:00:08;99902.16;;;13.18;99.75
46464;BME280;32161;48.148;-1.554;2023-04-23T01:02:38;99899.63;;;13.02;100.00
46464;BME280;32161;48.148;-1.554;2023-04-23T01:05:08;99889.25;;;12.99;100.00
46464;BME280;32161;48.148;-1.554;2023-04-23T01:07:37;99876.16;;;12.95;100.00
46464;BME280;32161;48.148;-1.554;2023-04-23T01:10:06;99885.19;;;13.01;100.00
46464;BME280;32161;48.148;-1.554;2023-04-23T01:12:34;99868.28;;;13.04;100.00
46464;BME280;32161;48.148;-1.554;2023-04-23T01:15:03;99873.97;;;13.03;100.00
46464;BME280;32161;48.148;-1.554;2023-04-23T01:17:31;99866.09;;;13.01;99.47
46464;BME280;32161;48.148;-1.554;2023-04-23T01:20:00;99863.88;;;12.98;99.30
46464;BME280;32161;48.148;-1.554;2023-04-23T01:22:29;99859.84;;;13.11;99.08
46464;BME280;32161;48.148;-1.554;2023-04-23T01:24:57;99858.75;;;13.07;99.58
46464;BME280;32161;48.148;-1.554;2023-04-23T01:27:25;99866.09;;;13.06;99.50
46464;BME280;32161;48.148;-1.554;2023-04-23T01:29:52;99862.00;;;13.09;99.90
46464;BME280;32161;48.148;-1.554;2023-04-23T01:32:21;99860.63;;;13.01;100.00
46464;BME280;32161;48.148;-1.554;2023-04-23T01:34:50;99848.94;;;13.16;100.00
46464;BME280;32161;48.148;-1.554;2023-04-23T01:37:20;99846.75;;;13.13;100.00
46464;BME280;32161;48.148;-1.554;2023-04-23T01:39:50;99849.19;;;13.09;100.00
46464;BME280;32161;48.148;-1.554;2023-04-23T01:42:18;99837.75;;;13.12;100.00
46464;BME280;32161;48.148;-1.554;2023-04-23T01:44:47;99833.63;;;13.05;100.00
46464;BME280;32161;48.148;-1.554;2023-04-23T01:47:15;99836.94;;;13.12;100.00
46464;BME280;32161;48.148;-1.554;2023-04-23T01:49:43;99837.16;;;13.05;100.00
46464;BME280;32161;48.148;-1.554;2023-04-23T01:52:10;99816.19;;;13.16;100.00
46464;BME280;32161;48.148;-1.554;2023-04-23T01:54:38;99810.16;;;13.04;100.00
46464;BME280;32161;48.148;-1.554;2023-04-23T01:57:07;99800.91;;;13.10;100.00
46464;BME280;32161;48.148;-1.554;2023-04-23T01:59:36;99778.00;;;13.11;100.00
46464;BME280;32161;48.148;-1.554;2023-04-23T02:02:03;99779.91;;;13.15;100.00
46464;BME280;32161;48.148;-1.554;2023-04-23T02:04:36;99773.06;;;13.13;100.00
46464;BME280;32161;48.148;-1.554;2023-04-23T02:07:05;99773.03;;;13.03;100.00
46464;BME280;32161;48.148;-1.554;2023-04-23T02:09:32;99763.25;;;13.12;100.00
46464;BME280;32161;48.148;-1.554;2023-04-23T02:12:00;99757.53;;;13.08;100.00
46464;BME280;32161;48.148;-1.554;2023-04-23T02:14:29;99757.78;;;13.17;100.00
46464;BME280;32161;48.148;-1.554;2023-04-23T02:16:56;99765.16;;;13.06;100.00
46464;BME280;32161;48.148;-1.554;2023-04-23T02:19:24;99766.25;;;13.10;100.00
46464;BME280;32161;48.148;-1.554;2023-04-23T02:21:52;99753.69;;;13.14;100.00
46464;BME280;32161;48.148;-1.554;2023-04-23T02:24:20;99755.59;;;12.93;100.00
46464;BME280;32161;48.148;-1.554;2023-04-23T02:26:48;99753.69;;;12.99;100.00
46464;BME280;32161;48.148;-1.554;2023-04-23T02:29:16;99756.13;;;12.85;100.00
46464;BME280;32161;48.148;-1.554;2023-04-23T02:31:45;99757.22;;;12.84;100.00
46464;BME280;32161;48.148;-1.554;2023-04-23T02:34:12;99754.50;;;13.05;100.00
46464;BME280;32161;48.148;-1.554;2023-04-23T02:36:40;99743.03;;;13.03;100.00
46464;BME280;32161;48.148;-1.554;2023-04-23T02:39:07;99759.97;;;13.00;100.00
46464;BME280;32161;48.148;-1.554;2023-04-23T02:41:35;99752.59;;;13.05;100.00
46464;BME280;32161;48.148;-1.554;2023-04-23T02:44:03;99753.38;;;12.90;100.00
46464;BME280;32161;48.148;-1.554;2023-04-23T02:46:30;99748.50;;;13.03;100.00
46464;BME280;32161;48.148;-1.554;2023-04-23T02:48:59;99757.78;;;13.02;100.00
46464;BME280;32161;48.148;-1.554;2023-04-23T02:51:27;99757.78;;;12.91;100.00
46464;BME280;32161;48.148;-1.554;2023-04-23T02:53:54;99746.34;;;13.00;100.00
46464;BME280;32161;48.148;-1.554;2023-04-23T02:56:22;99733.75;;;12.93;100.00
46464;BME280;32161;48.148;-1.554;2023-04-23T02:58:50;99740.84;;;12.94;100.00
46464;BME280;32161;48.148;-1.554;2023-04-23T03:01:18;99747.13;;;12.85;100.00
46464;BME280;32161;48.148;-1.554;2023-04-23T03:03:45;99728.81;;;12.75;100.00
46464;BME280;32161;48.148;-1.554;2023-04-23T03:06:14;99723.38;;;12.75;100.00
46464;BME280;32161;48.148;-1.554;2023-04-23T03:08:43;99715.75;;;12.82;100.00
46464;BME280;32161;48.148;-1.554;2023-04-23T03:11:11;99732.06;;;12.72;100.00
46464;BME280;32161;48.148;-1.554;2023-04-23T03:13:38;99728.56;;;12.77;100.00
46464;BME280;32161;48.148;-1.554;2023-04-23T03:16:06;99728.28;;;12.83;100.00
46464;BME280;32161;48.148;-1.554;2023-04-23T03:18:34;99716.56;;;12.83;100.00
46464;BME280;32161;48.148;-1.554;2023-04-23T03:21:02;99711.94;;;12.93;100.00
46464;BME280;32161;48.148;-1.554;2023-04-23T03:23:31;99709.47;;;12.77;100.00
46464;BME280;32161;48.148;-1.554;2023-04-23T03:25:58;99709.75;;;12.80;100.00
46464;BME280;32161;48.148;-1.554;2023-04-23T03:28:26;99709.75;;;12.85;100.00
46464;BME280;32161;48.148;-1.554;2023-04-23T03:30:53;99705.66;;;12.73;100.00
46464;BME280;32161;48.148;-1.554;2023-04-23T03:33:21;99703.22;;;12.76;100.00
46464;BME280;32161;48.148;-1.554;2023-04-23T03:35:49;99691.72;;;12.79;100.00
46464;BME280;32161;48.148;-1.554;2023-04-23T03:38:16;99686.84;;;12.81;100.00
46464;BME280;32161;48.148;-1.554;2023-04-23T03:40:45;99696.66;;;12.87;100.00
46464;BME280;32161;48.148;-1.554;2023-04-23T03:43:13;99680.81;;;12.79;100.00
46464;BME280;32161;48.148;-1.554;2023-04-23T03:45:41;99688.19;;;12.79;100.00
46464;BME280;32161;48.148;-1.554;2023-04-23T03:48:08;99683.84;;;12.78;100.00
46464;BME280;32161;48.148;-1.554;2023-04-23T03:50:36;99685.75;;;12.77;100.00
46464;BME280;32161;48.148;-1.554;2023-04-23T03:53:06;99677.81;;;12.76;100.00
46464;BME280;32161;48.148;-1.554;2023-04-23T03:55:35;99670.47;;;12.81;100.00
46464;BME280;32161;48.148;-1.554;2023-04-23T03:58:04;99670.75;;;12.85;100.00
46464;BME280;32161;48.148;-1.554;2023-04-23T04:00:31;99663.69;;;12.84;100.00
46464;BME280;32161;48.148;-1.554;2023-04-23T04:02:59;99661.47;;;13.01;100.00
46464;BME280;32161;48.148;-1.554;2023-04-23T04:05:27;99654.38;;;12.95;100.00
46464;BME280;32161;48.148;-1.554;2023-04-23T04:07:55;99656.56;;;12.98;100.00
46464;BME280;32161;48.148;-1.554;2023-04-23T04:10:22;99646.47;;;12.73;100.00
46464;BME280;32161;48.148;-1.554;2023-04-23T04:12:50;99648.66;;;12.86;100.00
46464;BME280;32161;48.148;-1.554;2023-04-23T04:15:19;99644.28;;;12.70;100.00
46464;BME280;32161;48.148;-1.554;2023-04-23T04:17:47;99636.66;;;12.82;100.00
46464;BME280;32161;48.148;-1.554;2023-04-23T04:20:14;99620.28;;;12.87;100.00
46464;BME280;32161;48.148;-1.554;2023-04-23T04:22:42;99620.59;;;12.81;100.00
46464;BME280;32161;48.148;-1.554;2023-04-23T04:25:10;99615.13;;;12.70;100.00
46464;BME280;32161;48.148;-1.554;2023-04-23T04:27:38;99610.47;;;12.71;100.00
46464;BME280;32161;48.148;-1.554;2023-04-23T04:30:08;99620.56;;;12.70;100.00
46464;BME280;32161;48.148;-1.554;2023-04-23T04:32:37;99615.38;;;12.74;100.00
46464;BME280;32161;48.148;-1.554;2023-04-23T04:35:06;99609.91;;;12.64;100.00
46464;BME280;32161;48.148;-1.554;2023-04-23T04:37:34;99595.75;;;12.52;100.00
46464;BME280;32161;48.148;-1.554;2023-04-23T04:40:02;99578.84;;;12.55;100.00
46464;BME280;32161;48.148;-1.554;2023-04-23T04:42:33;99577.22;;;12.54;100.00
46464;BME280;32161;48.148;-1.554;2023-04-23T04:45:01;99559.22;;;12.48;100.00
46464;BME280;32161;48.148;-1.554;2023-04-23T04:47:29;99557.06;;;12.65;100.00
46464;BME280;32161;48.148;-1.554;2023-04-23T04:49:58;99551.03;;;12.48;100.00
46464;BME280;32161;48.148;-1.554;2023-04-23T04:52:27;99542.28;;;12.25;100.00
46464;BME280;32161;48.148;-1.554;2023-04-23T04:54:54;99536.34;;;12.38;100.00
46464;BME280;32161;48.148;-1.554;2023-04-23T04:57:22;99540.13;;;12.48;100.00
46464;BME280;32161;48.148;-1.554;2023-04-23T04:59:50;99524.88;;;12.46;100.00
46464;BME280;32161;48.148;-1.554;2023-04-23T05:02:17;99515.59;;;12.37;100.00
46464;BME280;32161;48.148;-1.554;2023-04-23T05:04:46;99515.63;;;12.42;100.00
46464;BME280;32161;48.148;-1.554;2023-04-23T05:07:15;99510.41;;;12.26;100.00
46464;BME280;32161;48.148;-1.554;2023-04-23T05:09:43;99499.81;;;12.39;100.00
46464;BME280;32161;48.148;-1.554;2023-04-23T05:12:10;99496.28;;;12.34;100.00
46464;BME280;32161;48.148;-1.554;2023-04-23T05:14:38;99491.34;;;12.26;100.00
46464;BME280;32161;48.148;-1.554;2023-04-23T05:17:05;99485.09;;;12.30;100.00
46464;BME280;32161;48.148;-1.554;2023-04-23T05:19:33;99482.91;;;12.42;100.00
46464;BME280;32161;48.148;-1.554;2023-04-23T05:22:01;99475.03;;;12.31;100.00
46464;BME280;32161;48.148;-1.554;2023-04-23T05:24:30;99468.75;;;12.45;100.00
46464;BME280;32161;48.148;-1.554;2023-04-23T05:26:57;99463.59;;;12.34;100.00
46464;BME280;32161;48.148;-1.554;2023-04-23T05:29:26;99452.13;;;12.42;100.00
46464;BME280;32161;48.148;-1.554;2023-04-23T05:31:53;99443.66;;;12.18;100.00
46464;BME280;32161;48.148;-1.554;2023-04-23T05:34:21;99438.50;;;12.16;100.00
46464;BME280;32161;48.148;-1.554;2023-04-23T05:36:49;99432.75;;;12.33;100.00
46464;BME280;32161;48.148;-1.554;2023-04-23T05:39:16;99419.72;;;12.20;100.00
46464;BME280;32161;48.148;-1.554;2023-04-23T05:41:45;99421.63;;;12.35;100.00
46464;BME280;32161;48.148;-1.554;2023-04-23T05:44:13;99415.06;;;12.31;100.00
46464;BME280;32161;48.148;-1.554;2023-04-23T05:46:40;99408.28;;;12.23;100.00
46464;BME280;32161;48.148;-1.554;2023-04-23T05:49:08;99397.38;;;12.13;100.00
46464;BME280;32161;48.148;-1.554;2023-04-23T05:51:35;99392.75;;;12.24;100.00
46464;BME280;32161;48.148;-1.554;2023-04-23T05:54:03;99384.03;;;12.11;100.00
46464;BME280;32161;48.148;-1.554;2023-04-23T05:56:31;99376.69;;;12.12;100.00
46464;BME280;32161;48.148;-1.554;2023-04-23T05:59:00;99366.59;;;12.12;100.00
46464;BME280;32161;48.148;-1.554;2023-04-23T06:01:28;99346.97;;;12.10;100.00
46464;BME280;32161;48.148;-1.554;2023-04-23T06:03:55;99327.91;;;12.15;100.00
46464;BME280;32161;48.148;-1.554;2023-04-23T06:06:23;99312.38;;;12.16;100.00
46464;BME280;32161;48.148;-1.554;2023-04-23T06:08:51;99297.16;;;12.15;100.00
46464;BME280;32161;48.148;-1.554;2023-04-23T06:11:19;99279.69;;;12.21;100.00
46464;BME280;32161;48.148;-1.554;2023-04-23T06:13:47;99273.13;;;12.22;100.00
46464;BME280;32161;48.148;-1.554;2023-04-23T06:16:16;99253.50;;;12.30;100.00
46464;BME280;32161;48.148;-1.554;2023-04-23T06:18:43;99249.09;;;12.39;100.00
46464;BME280;32161;48.148;-1.554;2023-04-23T06:21:11;99234.16;;;12.32;100.00
46464;BME280;32161;48.148;-1.554;2023-04-23T06:23:39;99220.78;;;12.35;100.00
46464;BME280;32161;48.148;-1.554;2023-04-23T06:26:07;99212.63;;;12.35;100.00
46464;BME280;32161;48.148;-1.554;2023-04-23T06:28:34;99194.66;;;12.29;100.00
46464;BME280;32161;48.148;-1.554;2023-04-23T06:31:02;99173.41;;;12.31;100.00
46464;BME280;32161;48.148;-1.554;2023-04-23T06:33:32;99177.78;;;12.22;100.00
46464;BME280;32161;48.148;-1.554;2023-04-23T06:35:59;99161.94;;;12.29;100.00
46464;BME280;32161;48.148;-1.554;2023-04-23T06:38:27;99169.78;;;12.41;100.00
46464;BME280;32161;48.148;-1.554;2023-04-23T06:40:54;99166.59;;;12.29;100.00
46464;BME280;32161;48.148;-1.554;2023-04-23T06:43:22;99164.69;;;12.29;100.00
46464;BME280;32161;48.148;-1.554;2023-04-23T06:45:50;99173.22;;;12.12;100.00
46464;BME280;32161;48.148;-1.554;2023-04-23T06:48:17;99149.25;;;12.09;100.00
46464;BME280;32161;48.148;-1.554;2023-04-23T06:50:48;99149.72;;;12.27;100.00
46464;BME280;32161;48.148;-1.554;2023-04-23T06:53:16;99143.13;;;12.38;100.00
46464;BME280;32161;48.148;-1.554;2023-04-23T06:55:44;99143.13;;;12.33;100.00
46464;BME280;32161;48.148;-1.554;2023-04-23T06:58:11;99140.09;;;12.39;100.00
46464;BME280;32161;48.148;-1.554;2023-04-23T07:00:39;99148.88;;;12.31;100.00
46464;BME280;32161;48.148;-1.554;2023-04-23T07:03:06;99137.50;;;12.14;100.00
46464;BME280;32161;48.148;-1.554;2023-04-23T07:05:34;99132.31;;;12.17;100.00
46464;BME280;32161;48.148;-1.554;2023-04-23T07:08:03;99127.38;;;12.25;100.00
46464;BME280;32161;48.148;-1.554;2023-04-23T07:10:31;99128.81;;;12.12;100.00
46464;BME280;32161;48.148;-1.554;2023-04-23T07:12:58;99114.56;;;12.25;100.00
46464;BME280;32161;48.148;-1.554;2023-04-23T07:15:26;99115.53;;;12.50;100.00
46464;BME280;32161;48.148;-1.554;2023-04-23T07:17:54;99118.06;;;12.36;100.00
46464;BME280;32161;48.148;-1.554;2023-04-23T07:20:21;99194.91;;;12.33;100.00
46464;BME280;32161;48.148;-1.554;2023-04-23T07:22:49;99189.63;;;12.52;100.00
46464;BME280;32161;48.148;-1.554;2023-04-23T07:25:18;99184.00;;;12.33;100.00
46464;BME280;32161;48.148;-1.554;2023-04-23T07:27:46;99201.72;;;12.35;100.00
46464;BME280;32161;48.148;-1.554;2023-04-23T07:30:14;99221.34;;;12.32;100.00
46464;BME280;32161;48.148;-1.554;2023-04-23T07:32:42;99223.38;;;11.91;100.00
46464;BME280;32161;48.148;-1.554;2023-04-23T07:35:10;99234.84;;;11.67;100.00
46464;BME280;32161;48.148;-1.554;2023-04-23T07:37:38;99235.97;;;11.46;99.96
46464;BME280;32161;48.148;-1.554;2023-04-23T07:40:07;99245.75;;;11.47;97.80
46464;BME280;32161;48.148;-1.554;2023-04-23T07:42:36;99237.84;;;11.51;96.87
46464;BME280;32161;48.148;-1.554;2023-04-23T07:45:05;99262.34;;;11.35;98.23
46464;BME280;32161;48.148;-1.554;2023-04-23T07:47:33;99260.69;;;11.09;99.67
46464;BME280;32161;48.148;-1.554;2023-04-23T07:50:01;99266.94;;;11.04;100.00
46464;BME280;32161;48.148;-1.554;2023-04-23T07:52:29;99271.84;;;11.17;100.00
46464;BME280;32161;48.148;-1.554;2023-04-23T07:54:57;99293.88;;;11.21;100.00
46464;BME280;32161;48.148;-1.554;2023-04-23T07:57:24;99297.97;;;11.44;100.00
46464;BME280;32161;48.148;-1.554;2023-04-23T07:59:53;99307.25;;;11.43;100.00
46464;BME280;32161;48.148;-1.554;2023-04-23T08:02:21;99308.59;;;11.51;100.00
46464;BME280;32161;48.148;-1.554;2023-04-23T08:04:51;99322.50;;;11.54;100.00
46464;BME280;32161;48.148;-1.554;2023-04-23T08:07:18;99330.38;;;11.71;100.00
46464;BME280;32161;48.148;-1.554;2023-04-23T08:09:46;99352.94;;;11.56;100.00
46464;BME280;32161;48.148;-1.554;2023-04-23T08:12:14;99364.16;;;12.06;96.77
46464;BME280;32161;48.148;-1.554;2023-04-23T08:14:42;99365.47;;;11.83;98.44
46464;BME280;32161;48.148;-1.554;2023-04-23T08:17:11;99395.75;;;12.02;99.21
46464;BME280;32161;48.148;-1.554;2023-04-23T08:19:39;99418.63;;;12.06;96.56
46464;BME280;32161;48.148;-1.554;2023-04-23T08:22:07;99431.13;;;11.91;97.33
46464;BME280;32161;48.148;-1.554;2023-04-23T08:24:35;99441.22;;;11.96;97.52
46464;BME280;32161;48.148;-1.554;2023-04-23T08:27:03;99454.53;;;11.87;96.91
46464;BME280;32161;48.148;-1.554;2023-04-23T08:29:31;99461.88;;;11.82;98.34
46464;BME280;32161;48.148;-1.554;2023-04-23T08:31:58;99482.06;;;12.01;97.75
46464;BME280;32161;48.148;-1.554;2023-04-23T08:34:27;99474.16;;;11.89;98.35
46464;BME280;32161;48.148;-1.554;2023-04-23T08:36:55;99486.44;;;12.02;98.70
46464;BME280;32161;48.148;-1.554;2023-04-23T08:39:22;99492.69;;;11.92;97.01
46464;BME280;32161;48.148;-1.554;2023-04-23T08:41:54;99495.97;;;12.10;96.16
46464;BME280;32161;48.148;-1.554;2023-04-23T08:44:24;99511.78;;;12.13;98.35
46464;BME280;32161;48.148;-1.554;2023-04-23T08:46:53;99500.63;;;12.25;99.02
46464;BME280;32161;48.148;-1.554;2023-04-23T08:49:21;99506.91;;;12.30;98.05
46464;BME280;32161;48.148;-1.554;2023-04-23T08:51:52;99517.50;;;12.67;96.80
46464;BME280;32161;48.148;-1.554;2023-04-23T08:54:23;99522.69;;;12.64;93.95
46464;BME280;32161;48.148;-1.554;2023-04-23T08:56:53;99522.69;;;12.64;94.78
46464;BME280;32161;48.148;-1.554;2023-04-23T08:59:22;99522.41;;;12.70;94.15
46464;BME280;32161;48.148;-1.554;2023-04-23T09:01:51;99529.19;;;12.83;91.77
46464;BME280;32161;48.148;-1.554;2023-04-23T09:04:19;99534.38;;;12.90;90.14
46464;BME280;32161;48.148;-1.554;2023-04-23T09:06:50;99540.66;;;12.90;90.58
46464;BME280;32161;48.148;-1.554;2023-04-23T09:09:18;99545.00;;;13.07;89.92
46464;BME280;32161;48.148;-1.554;2023-04-23T09:11:48;99545.81;;;13.02;91.89
46464;BME280;32161;48.148;-1.554;2023-04-23T09:14:16;99545.50;;;13.14;92.43
46464;BME280;32161;48.148;-1.554;2023-04-23T09:16:44;99544.72;;;13.18;89.93
46464;BME280;32161;48.148;-1.554;2023-04-23T09:19:11;99561.31;;;13.32;90.78
46464;BME280;32161;48.148;-1.554;2023-04-23T09:21:39;99562.81;;;13.74;85.69
46464;BME280;32161;48.148;-1.554;2023-04-23T09:24:10;99546.66;;;13.88;85.16
46464;BME280;32161;48.148;-1.554;2023-04-23T09:26:44;99563.06;;;13.78;87.33
46464;BME280;32161;48.148;-1.554;2023-04-23T09:29:13;99558.00;;;14.05;84.98
46464;BME280;32161;48.148;-1.554;2023-04-23T09:31:44;99560.38;;;14.22;84.40
46464;BME280;32161;48.148;-1.554;2023-04-23T09:34:14;99569.47;;;14.07;84.96
46464;BME280;32161;48.148;-1.554;2023-04-23T09:36:43;99557.09;;;14.20;83.50
46464;BME280;32161;48.148;-1.554;2023-04-23T09:39:13;99563.69;;;14.19;83.84
46464;BME280;32161;48.148;-1.554;2023-04-23T09:41:42;99578.75;;;14.11;85.85
46464;BME280;32161;48.148;-1.554;2023-04-23T09:44:11;99579.44;;;14.32;85.83
46464;BME280;32161;48.148;-1.554;2023-04-23T09:46:44;99582.47;;;14.31;87.72
46464;BME280;32161;48.148;-1.554;2023-04-23T09:49:14;99577.50;;;14.38;86.62
46464;BME280;32161;48.148;-1.554;2023-04-23T09:51:44;99587.50;;;14.53;85.05
46464;BME280;32161;48.148;-1.554;2023-04-23T09:54:15;99581.97;;;14.63;84.65
46464;BME280;32161;48.148;-1.554;2023-04-23T09:56:47;99591.00;;;14.63;83.38
46464;BME280;32161;48.148;-1.554;2023-04-23T09:59:20;99603.09;;;14.52;83.67
46464;BME280;32161;48.148;-1.554;2023-04-23T10:01:48;99602.81;;;14.49;83.21
46464;BME280;32161;48.148;-1.554;2023-04-23T10:04:18;99613.13;;;14.23;85.91
46464;BME280;32161;48.148;-1.554;2023-04-23T10:06:48;99610.59;;;14.31;87.45
46464;BME280;32161;48.148;-1.554;2023-04-23T10:09:22;99618.13;;;14.55;85.99
46464;BME280;32161;48.148;-1.554;2023-04-23T10:11:52;99627.44;;;14.49;85.83
46464;BME280;32161;48.148;-1.554;2023-04-23T10:14:20;99623.50;;;14.70;84.75
46464;BME280;32161;48.148;-1.554;2023-04-23T10:16:51;99618.34;;;14.98;83.82
46464;BME280;32161;48.148;-1.554;2023-04-23T10:19:21;99622.25;;;14.86;84.80
46464;BME280;32161;48.148;-1.554;2023-04-23T10:21:54;99620.72;;;14.75;85.35
46464;BME280;32161;48.148;-1.554;2023-04-23T10:24:25;99629.84;;;14.95;84.28
46464;BME280;32161;48.148;-1.554;2023-04-23T10:26:57;99624.59;;;15.03;83.50
46464;BME280;32161;48.148;-1.554;2023-04-23T10:29:29;99623.06;;;15.21;86.69
46464;BME280;32161;48.148;-1.554;2023-04-23T10:31:59;99630.75;;;15.19;86.86
46464;BME280;32161;48.148;-1.554;2023-04-23T10:34:29;99630.38;;;15.31;85.17
46464;BME280;32161;48.148;-1.554;2023-04-23T10:36:59;99630.88;;;15.33;82.89
46464;BME280;32161;48.148;-1.554;2023-04-23T10:39:31;99627.16;;;15.48;85.54
46464;BME280;32161;48.148;-1.554;2023-04-23T10:42:01;99619.34;;;15.65;86.89
46464;BME280;32161;48.148;-1.554;2023-04-23T10:44:36;99625.81;;;15.74;83.65
46464;BME280;32161;48.148;-1.554;2023-04-23T10:47:05;99622.09;;;15.89;82.49
46464;BME280;32161;48.148;-1.554;2023-04-23T10:49:34;99624.84;;;16.08;79.85
46464;BME280;32161;48.148;-1.554;2023-04-23T10:52:09;99630.00;;;15.91;79.58
46464;BME280;32161;48.148;-1.554;2023-04-23T10:54:41;99616.84;;;15.69;80.18
46464;BME280;32161;48.148;-1.554;2023-04-23T10:57:10;99619.34;;;15.65;80.30
46464;BME280;32161;48.148;-1.554;2023-04-23T10:59:40;99624.44;;;15.77;81.82
46464;BME280;32161;48.148;-1.554;2023-04-23T11:02:09;99621.16;;;16.18;84.76
46464;BME280;32161;48.148;-1.554;2023-04-23T11:04:44;99625.09;;;16.30;81.97
46464;BME280;32161;48.148;-1.554;2023-04-23T11:07:13;99619.97;;;16.24;80.43
46464;BME280;32161;48.148;-1.554;2023-04-23T11:09:45;99622.94;;;16.27;79.26
46464;BME280;32161;48.148;-1.554;2023-04-23T11:12:34;99625.03;;;16.35;78.17
46464;BME280;32161;48.148;-1.554;2023-04-23T11:15:11;99629.94;;;16.39;80.25
46464;BME280;32161;48.148;-1.554;2023-04-23T11:17:58;99628.31;;;16.38;80.87
46464;BME280;32161;48.148;-1.554;2023-04-23T11:20:25;99620.44;;;16.50;81.71
46464;BME280;32161;48.148;-1.554;2023-04-23T11:22:53;99623.84;;;16.60;79.31
46464;BME280;32161;48.148;-1.554;2023-04-23T11:25:24;99628.66;;;16.69;77.62
46464;BME280;32161;48.148;-1.554;2023-04-23T11:27:54;99631.88;;;16.57;77.17
46464;BME280;32161;48.148;-1.554;2023-04-23T11:30:25;99637.94;;;16.54;76.19
46464;BME280;32161;48.148;-1.554;2023-04-23T11:32:54;99641.94;;;16.43;77.29
46464;BME280;32161;48.148;-1.554;2023-04-23T11:35:24;99645.09;;;16.12;77.96
46464;BME280;32161;48.148;-1.554;2023-04-23T11:37:55;99642.31;;;15.93;79.59
46464;BME280;32161;48.148;-1.554;2023-04-23T11:40:24;99651.06;;;15.95;80.29
46464;BME280;32161;48.148;-1.554;2023-04-23T11:42:54;99659.88;;;15.92;81.82
46464;BME280;32161;48.148;-1.554;2023-04-23T11:45:24;99647.06;;;15.88;83.38
46464;BME280;32161;48.148;-1.554;2023-04-23T11:47:53;99651.16;;;16.09;86.25
46464;BME280;32161;48.148;-1.554;2023-04-23T11:50:24;99648.53;;;16.23;87.23
46464;BME280;32161;48.148;-1.554;2023-04-23T11:52:52;99644.31;;;16.30;87.77
46464;BME280;32161;48.148;-1.554;2023-04-23T11:55:22;99654.16;;;16.50;85.66
46464;BME280;32161;48.148;-1.554;2023-04-23T11:57:51;99657.13;;;16.73;81.67
46464;BME280;32161;48.148;-1.554;2023-04-23T12:00:22;99654.31;;;16.59;84.03
46464;BME280;32161;48.148;-1.554;2023-04-23T12:02:51;99659.34;;;16.52;85.99
46464;BME280;32161;48.148;-1.554;2023-04-23T12:05:21;99661.81;;;16.72;83.43
46464;BME280;32161;48.148;-1.554;2023-04-23T12:07:50;99661.88;;;16.67;84.78
46464;BME280;32161;48.148;-1.554;2023-04-23T12:10:19;99674.31;;;16.83;80.74
46464;BME280;32161;48.148;-1.554;2023-04-23T12:12:52;99698.75;;;16.61;81.12
46464;BME280;32161;48.148;-1.554;2023-04-23T12:15:20;99725.28;;;16.66;75.95
46464;BME280;32161;48.148;-1.554;2023-04-23T12:17:48;99741.63;;;16.09;75.51
46464;BME280;32161;48.148;-1.554;2023-04-23T12:20:19;99745.31;;;15.70;77.03
46464;BME280;32161;48.148;-1.554;2023-04-23T12:22:47;99739.88;;;15.31;78.44
46464;BME280;32161;48.148;-1.554;2023-04-23T12:25:15;99732.41;;;15.02;79.30
46464;BME280;32161;48.148;-1.554;2023-04-23T12:27:44;99737.22;;;14.81;81.75
46464;BME280;32161;48.148;-1.554;2023-04-23T12:30:14;99730.78;;;14.62;83.85
46464;BME280;32161;48.148;-1.554;2023-04-23T12:32:43;99731.00;;;14.71;84.38
46464;BME280;32161;48.148;-1.554;2023-04-23T12:35:10;99735.94;;;14.69;86.85
46464;BME280;32161;48.148;-1.554;2023-04-23T12:37:39;99740.56;;;14.73;88.09
46464;BME280;32161;48.148;-1.554;2023-04-23T12:40:07;99742.44;;;14.78;89.06
46464;BME280;32161;48.148;-1.554;2023-04-23T12:42:36;99733.06;;;14.89;89.90
46464;BME280;32161;48.148;-1.554;2023-04-23T12:45:08;99730.78;;;15.01;89.11
46464;BME280;32161;48.148;-1.554;2023-04-23T12:47:38;99724.34;;;15.21;87.30
46464;BME280;32161;48.148;-1.554;2023-04-23T12:50:07;99728.63;;;15.32;88.22
46464;BME280;32161;48.148;-1.554;2023-04-23T12:52:35;99730.75;;;15.41;85.15